createdAt,value
2023-05-08T00:01:06.518Z,21.10
2023-05-08T00:03:36.615Z,20.90
2023-05-08T00:06:06.718Z,19.63
2023-05-08T00:08:36.326Z,18.70
2023-05-08T00:11:05.570Z,16.03
2023-05-08T00:13:36.161Z,17.37
2023-05-08T00:16:05.373Z,18.30
2023-05-08T00:18:34.852Z,20.40
2023-05-08T00:21:04.101Z,14.57
2023-05-08T00:23:33.419Z,16.37
2023-05-08T00:26:02.783Z,15.77
2023-05-08T00:28:31.951Z,17.70
2023-05-08T00:31:03.381Z,17.60
2023-05-08T00:33:32.653Z,15.00
2023-05-08T00:36:02.766Z,18.50
2023-05-08T00:38:32.924Z,17.70
2023-05-08T00:41:02.954Z,13.63
2023-05-08T00:43:32.365Z,13.93
2023-05-08T00:46:04.246Z,11.33
2023-05-08T00:48:35.720Z,14.43
2023-05-08T00:51:08.178Z,15.63
2023-05-08T00:53:40.653Z,15.87
2023-05-08T00:56:12.959Z,15.97
2023-05-08T00:58:43.632Z,17.20
2023-05-08T01:01:14.416Z,15.30
2023-05-08T01:03:45.534Z,13.33
2023-05-08T01:06:14.818Z,13.73
2023-05-08T01:08:46.787Z,15.07
2023-05-08T01:11:24.570Z,14.03
2023-05-08T01:13:59.934Z,16.37
2023-05-08T01:16:43.314Z,13.40
2023-05-08T01:19:43.400Z,14.90
2023-05-08T01:22:24.169Z,14.57
2023-05-08T01:25:35.349Z,12.10
2023-05-08T01:28:30.149Z,14.17
2023-05-08T01:31:13.574Z,12.97
2023-05-08T01:33:50.204Z,14.17
2023-05-08T01:36:28.907Z,13.13
2023-05-08T01:39:07.058Z,12.90
2023-05-08T01:41:38.396Z,14.57
2023-05-08T01:44:14.043Z,13.47
2023-05-08T01:46:46.767Z,13.03
2023-05-08T01:49:25.606Z,13.20
2023-05-08T01:52:00.952Z,14.13
2023-05-08T01:54:34.215Z,15.30
2023-05-08T01:57:04.570Z,12.30
2023-05-08T01:59:37.343Z,12.77
2023-05-08T02:02:08.244Z,15.47
2023-05-08T02:04:39.919Z,13.53
2023-05-08T02:07:10.566Z,12.83
2023-05-08T02:09:41.765Z,12.90
2023-05-08T02:12:12.255Z,12.40
2023-05-08T02:14:43.331Z,13.87
2023-05-08T02:17:14.674Z,12.07
2023-05-08T02:19:46.800Z,14.27
2023-05-08T02:22:18.424Z,12.23
2023-05-08T02:24:48.503Z,14.00
2023-05-08T02:27:18.925Z,13.87
2023-05-08T02:29:48.712Z,13.13
2023-05-08T02:32:19.818Z,13.60
2023-05-08T02:35:02.482Z,12.97
2023-05-08T02:37:33.543Z,11.90
2023-05-08T02:40:06.763Z,16.73
2023-05-08T02:42:36.245Z,15.53
2023-05-08T02:45:05.935Z,14.13
2023-05-08T02:47:43.896Z,17.03
2023-05-08T02:50:21.073Z,12.17
2023-05-08T02:52:52.902Z,13.43
2023-05-08T02:55:35.188Z,12.77
2023-05-08T02:58:13.371Z,11.27
2023-05-08T03:00:47.863Z,15.33
2023-05-08T03:03:24.452Z,13.20
2023-05-08T03:05:58.267Z,11.07
2023-05-08T03:08:32.242Z,11.83
2023-05-08T03:11:05.424Z,11.50
2023-05-08T03:13:36.934Z,12.17
2023-05-08T03:16:10.088Z,17.63
2023-05-08T03:18:44.793Z,11.30
2023-05-08T03:21:19.683Z,13.17
2023-05-08T03:23:51.115Z,14.13
2023-05-08T03:26:21.582Z,11.07
2023-05-08T03:28:52.751Z,11.13
2023-05-08T03:31:26.038Z,10.10
2023-05-08T03:33:56.733Z,9.70
2023-05-08T03:36:29.075Z,11.23
2023-05-08T03:38:58.467Z,14.43
2023-05-08T03:41:28.162Z,14.97
2023-05-08T03:43:58.737Z,10.80
2023-05-08T03:46:28.235Z,9.17
2023-05-08T03:49:00.541Z,9.30
2023-05-08T03:51:31.663Z,10.87
2023-05-08T03:54:01.508Z,9.93
2023-05-08T03:56:31.002Z,11.90
2023-05-08T03:59:11.331Z,10.93
2023-05-08T04:01:41.980Z,9.53
2023-05-08T04:04:19.966Z,8.90
2023-05-08T04:06:55.621Z,8.40
2023-05-08T04:09:37.515Z,11.68
2023-05-08T04:12:15.262Z,8.73
2023-05-08T04:14:49.371Z,11.68
2023-05-08T04:17:29.339Z,10.13
2023-05-08T04:20:04.776Z,10.68
2023-05-08T04:22:37.003Z,9.57
2023-05-08T04:25:09.354Z,8.50
2023-05-08T04:27:38.885Z,7.18
2023-05-08T04:30:10.864Z,9.13
2023-05-08T04:32:42.354Z,11.30
2023-05-08T04:35:14.342Z,6.50
2023-05-08T04:37:45.999Z,6.82
2023-05-08T04:40:15.708Z,6.97
2023-05-08T04:42:47.794Z,6.10
2023-05-08T04:45:20.181Z,6.75
2023-05-08T04:47:49.579Z,6.25
2023-05-08T04:50:18.912Z,7.90
2023-05-08T04:52:50.285Z,7.03
2023-05-08T04:55:19.649Z,7.40
2023-05-08T04:57:49.673Z,8.32
2023-05-08T05:00:19.702Z,5.53
2023-05-08T05:02:49.313Z,7.05
2023-05-08T05:05:19.011Z,6.57
2023-05-08T05:07:49.691Z,5.95
2023-05-08T05:10:20.566Z,5.65
2023-05-08T05:12:49.727Z,6.00
2023-05-08T05:15:19.241Z,7.07
2023-05-08T05:17:48.604Z,5.53
2023-05-08T05:20:18.162Z,5.60
2023-05-08T05:22:47.417Z,4.57
2023-05-08T05:25:18.385Z,5.72
2023-05-08T05:27:47.748Z,5.47
2023-05-08T05:30:17.652Z,4.72
2023-05-08T05:32:47.088Z,5.32
2023-05-08T05:35:16.778Z,4.10
2023-05-08T05:37:46.133Z,4.65
2023-05-08T05:40:15.698Z,5.00
2023-05-08T05:42:51.234Z,4.40
2023-05-08T05:45:21.713Z,5.93
2023-05-08T05:47:54.449Z,5.90
2023-05-08T05:50:26.839Z,4.63
2023-05-08T05:52:57.953Z,4.18
2023-05-08T05:55:28.901Z,4.75
2023-05-08T05:58:00.794Z,3.63
2023-05-08T06:00:30.892Z,5.55
2023-05-08T06:03:02.618Z,5.40
2023-05-08T06:05:32.980Z,5.95
2023-05-08T06:08:02.663Z,6.07
2023-05-08T06:10:31.952Z,5.03
2023-05-08T06:13:03.474Z,3.60
2023-05-08T06:15:33.073Z,4.63
2023-05-08T06:18:02.315Z,3.60
2023-05-08T06:20:31.654Z,3.78
2023-05-08T06:23:01.170Z,3.45
2023-05-08T06:25:31.311Z,2.70
2023-05-08T06:28:02.029Z,3.13
2023-05-08T06:30:31.461Z,3.30
2023-05-08T06:33:00.819Z,3.37
2023-05-08T06:35:30.228Z,3.20
2023-05-08T06:37:59.459Z,3.07
2023-05-08T06:40:29.134Z,3.27
2023-05-08T06:42:58.625Z,3.03
2023-05-08T06:45:29.708Z,3.80
2023-05-08T06:47:59.076Z,2.53
2023-05-08T06:50:28.633Z,3.40
2023-05-08T06:52:57.848Z,2.57
2023-05-08T06:55:27.136Z,3.57
2023-05-08T06:57:56.471Z,2.63
2023-05-08T07:00:26.570Z,3.28
2023-05-08T07:02:57.708Z,4.45
2023-05-08T07:05:27.228Z,3.58
2023-05-08T07:07:56.575Z,4.57
2023-05-08T07:10:25.865Z,2.42
2023-05-08T07:12:55.172Z,2.75
2023-05-08T07:15:26.620Z,2.75
2023-05-08T07:17:57.894Z,5.97
2023-05-08T07:20:27.393Z,2.60
2023-05-08T07:22:57.604Z,2.33
2023-05-08T07:25:27.361Z,4.45
2023-05-08T07:27:56.982Z,2.53
2023-05-08T07:30:27.124Z,4.05
2023-05-08T07:32:58.045Z,3.22
2023-05-08T07:35:27.720Z,2.40
2023-05-08T07:37:57.094Z,2.58
2023-05-08T07:40:26.610Z,2.90
2023-05-08T07:42:55.967Z,2.45
2023-05-08T07:45:25.416Z,3.95
2023-05-08T07:47:58.402Z,2.65
2023-05-08T07:50:28.454Z,3.92
2023-05-08T07:52:57.805Z,3.75
2023-05-08T07:55:27.303Z,4.20
2023-05-08T07:57:56.726Z,3.20
2023-05-08T08:00:27.649Z,2.60
2023-05-08T08:02:58.959Z,3.65
2023-05-08T08:05:28.756Z,2.63
2023-05-08T08:07:58.197Z,4.87
2023-05-08T08:10:27.715Z,3.17
2023-05-08T08:12:57.348Z,4.30
2023-05-08T08:15:28.750Z,3.97
2023-05-08T08:17:59.362Z,6.17
2023-05-08T08:20:28.910Z,3.03
2023-05-08T08:22:58.448Z,3.83
2023-05-08T08:25:28.125Z,2.60
2023-05-08T08:27:58.752Z,3.53
2023-05-08T08:30:28.210Z,6.10
2023-05-08T08:33:02.518Z,5.93
2023-05-08T08:35:31.755Z,4.00
2023-05-08T08:38:01.168Z,3.47
2023-05-08T08:40:30.596Z,3.73
2023-05-08T08:43:00.692Z,4.47
2023-05-08T08:45:30.167Z,4.20
2023-05-08T08:48:04.349Z,5.97
2023-05-08T08:50:34.989Z,4.70
2023-05-08T08:53:09.646Z,6.88
2023-05-08T08:55:41.986Z,10.65
2023-05-08T08:58:23.215Z,3.28
2023-05-08T09:00:54.854Z,4.72
2023-05-08T09:03:25.823Z,3.28
2023-05-08T09:05:56.370Z,5.90
2023-05-08T09:08:26.500Z,7.68
2023-05-08T09:10:57.169Z,3.28
2023-05-08T09:13:26.701Z,3.25
2023-05-08T09:15:56.101Z,2.70
2023-05-08T09:18:26.947Z,4.45
2023-05-08T09:20:56.637Z,2.55
2023-05-08T09:23:26.546Z,4.28
2023-05-08T09:25:55.886Z,5.35
2023-05-08T09:28:26.447Z,3.13
2023-05-08T09:30:58.126Z,4.32
2023-05-08T09:33:30.526Z,4.07
2023-05-08T09:36:00.022Z,3.50
2023-05-08T09:38:37.412Z,3.50
2023-05-08T09:41:11.577Z,2.87
2023-05-08T09:43:41.266Z,4.03
2023-05-08T09:46:27.141Z,4.47
2023-05-08T09:48:59.873Z,13.48
2023-05-08T09:51:33.453Z,6.47
2023-05-08T09:54:06.120Z,3.37
2023-05-08T09:56:37.391Z,3.00
2023-05-08T09:59:23.766Z,6.83
2023-05-08T10:01:53.322Z,3.17
2023-05-08T10:04:35.559Z,4.37
2023-05-08T10:07:05.266Z,2.80
2023-05-08T10:09:47.094Z,2.50
2023-05-08T10:12:20.218Z,5.40
2023-05-08T10:14:50.259Z,2.40
2023-05-08T10:17:28.214Z,3.73
2023-05-08T10:20:02.662Z,3.63
2023-05-08T10:22:36.613Z,2.53
2023-05-08T10:25:12.522Z,2.87
2023-05-08T10:27:47.247Z,3.27
2023-05-08T10:30:21.343Z,3.50
2023-05-08T10:32:55.502Z,3.90
2023-05-08T10:35:27.601Z,5.07
2023-05-08T10:37:58.754Z,3.43
2023-05-08T10:40:28.291Z,7.63
2023-05-08T10:42:59.156Z,4.43
2023-05-08T10:45:30.447Z,2.90
2023-05-08T10:48:10.286Z,4.30
2023-05-08T10:50:53.422Z,3.17
2023-05-08T10:53:30.799Z,4.50
2023-05-08T10:56:00.850Z,2.53
2023-05-08T10:58:35.267Z,2.97
2023-05-08T11:01:18.165Z,4.70
2023-05-08T11:03:51.857Z,3.27
2023-05-08T11:06:47.053Z,4.60
2023-05-08T11:09:23.900Z,4.87
2023-05-08T11:12:18.167Z,2.93
2023-05-08T11:14:57.755Z,4.63
2023-05-08T11:17:27.280Z,8.00
2023-05-08T11:19:58.782Z,5.10
2023-05-08T11:22:33.263Z,2.80
2023-05-08T11:25:08.111Z,3.40
2023-05-08T11:27:43.133Z,3.93
2023-05-08T11:30:36.815Z,3.80
2023-05-08T11:33:16.909Z,3.70
2023-05-08T11:35:54.442Z,3.60
2023-05-08T11:38:34.429Z,2.57
2023-05-08T11:41:06.315Z,8.07
2023-05-08T11:44:15.020Z,2.23
2023-05-08T11:46:50.464Z,3.63
2023-05-08T11:49:25.958Z,3.73
2023-05-08T11:52:00.951Z,2.37
2023-05-08T11:54:33.188Z,4.13
2023-05-08T11:57:03.085Z,2.80
2023-05-08T11:59:38.088Z,3.53
2023-05-08T12:02:09.563Z,4.40
2023-05-08T12:04:47.132Z,5.22
2023-05-08T12:07:17.633Z,2.83
2023-05-08T12:09:49.818Z,3.83
2023-05-08T12:12:19.176Z,4.23
2023-05-08T12:14:51.848Z,4.10
2023-05-08T12:17:21.431Z,4.20
2023-05-08T12:19:56.769Z,4.77
2023-05-08T12:22:26.092Z,3.70
2023-05-08T12:24:57.170Z,2.50
2023-05-08T12:27:26.898Z,3.40
2023-05-08T12:29:56.199Z,3.57
2023-05-08T12:32:28.377Z,3.03
2023-05-08T12:34:59.540Z,3.50
2023-05-08T12:37:29.941Z,2.73
2023-05-08T12:40:01.002Z,3.00
2023-05-08T12:42:46.614Z,5.60
2023-05-08T12:45:20.075Z,2.40
2023-05-08T12:47:50.140Z,3.70
2023-05-08T12:50:21.406Z,4.80
2023-05-08T12:52:51.943Z,4.67
2023-05-08T12:55:27.959Z,3.53
2023-05-08T12:58:05.562Z,4.93
2023-05-08T13:00:39.807Z,4.47
2023-05-08T13:03:10.468Z,2.70
2023-05-08T13:05:42.806Z,2.95
2023-05-08T13:08:12.302Z,4.70
2023-05-08T13:10:51.462Z,4.53
2023-05-08T13:13:22.181Z,2.80
2023-05-08T13:15:52.676Z,2.37
2023-05-08T13:18:23.762Z,3.03
2023-05-08T13:20:53.318Z,2.23
2023-05-08T13:23:22.668Z,3.53
2023-05-08T13:25:53.563Z,3.20
2023-05-08T13:28:22.859Z,3.90
2023-05-08T13:30:52.496Z,3.37
2023-05-08T13:33:21.809Z,3.00
2023-05-08T13:35:51.179Z,3.60
2023-05-08T13:38:20.453Z,5.83
2023-05-08T13:40:49.654Z,5.30
2023-05-08T13:43:21.127Z,3.23
2023-05-08T13:45:50.382Z,3.50
2023-05-08T13:48:19.789Z,3.20
2023-05-08T13:50:49.061Z,2.80
2023-05-08T13:53:18.350Z,5.50
2023-05-08T13:55:47.571Z,3.10
2023-05-08T13:58:16.928Z,2.70
2023-05-08T14:00:47.879Z,3.13
2023-05-08T14:03:17.383Z,6.40
2023-05-08T14:05:47.072Z,4.63
2023-05-08T14:08:16.618Z,4.23
2023-05-08T14:10:46.130Z,3.00
2023-05-08T14:13:15.516Z,2.77
2023-05-08T14:15:44.767Z,4.90
2023-05-08T14:18:15.516Z,4.53
2023-05-08T14:20:48.924Z,6.77
2023-05-08T14:23:18.562Z,2.50
2023-05-08T14:25:48.056Z,2.87
2023-05-08T14:28:17.363Z,2.35
2023-05-08T14:30:47.012Z,2.83
2023-05-08T14:33:19.328Z,2.77
2023-05-08T14:35:48.897Z,2.83
2023-05-08T14:38:18.300Z,4.10
2023-05-08T14:40:47.678Z,5.13
2023-05-08T14:43:17.081Z,3.03
2023-05-08T14:45:46.501Z,4.33
2023-05-08T14:48:17.469Z,4.43
2023-05-08T14:50:46.886Z,2.87
2023-05-08T14:53:16.527Z,2.87
2023-05-08T14:55:46.234Z,2.90
2023-05-08T14:58:15.667Z,2.87
2023-05-08T15:00:44.815Z,2.67
2023-05-08T15:03:14.164Z,3.13
2023-05-08T15:05:45.176Z,2.80
2023-05-08T15:08:14.550Z,4.63
2023-05-08T15:10:43.934Z,3.53
2023-05-08T15:13:13.140Z,3.07
2023-05-08T15:15:42.487Z,3.10
2023-05-08T15:18:12.610Z,3.07
2023-05-08T15:20:43.617Z,4.63
2023-05-08T15:23:13.690Z,4.33
2023-05-08T15:25:43.314Z,3.90
2023-05-08T15:28:13.039Z,3.27
2023-05-08T15:30:42.504Z,3.43
2023-05-08T15:33:11.839Z,4.93
2023-05-08T15:35:40.940Z,3.00
2023-05-08T15:38:11.965Z,6.73
2023-05-08T15:40:41.208Z,4.57
2023-05-08T15:43:10.776Z,3.10
2023-05-08T15:45:40.443Z,2.60
2023-05-08T15:48:10.165Z,5.60
2023-05-08T15:50:39.491Z,3.73
2023-05-08T15:53:08.844Z,2.50
2023-05-08T15:55:40.488Z,2.90
2023-05-08T15:58:09.773Z,3.93
2023-05-08T16:00:44.839Z,5.30
2023-05-08T16:03:15.007Z,3.30
2023-05-08T16:05:44.570Z,3.80
2023-05-08T16:08:14.073Z,3.90
2023-05-08T16:10:45.258Z,3.83
2023-05-08T16:13:14.711Z,3.30
2023-05-08T16:15:44.093Z,3.27
2023-05-08T16:18:13.629Z,4.07
2023-05-08T16:20:43.756Z,3.07
2023-05-08T16:23:14.765Z,6.43
2023-05-08T16:25:45.570Z,3.37
2023-05-08T16:28:14.794Z,4.00
2023-05-08T16:30:44.330Z,3.67
2023-05-08T16:33:13.681Z,4.77
2023-05-08T16:35:42.955Z,5.37
2023-05-08T16:38:12.366Z,3.40
2023-05-08T16:40:42.028Z,5.07
2023-05-08T16:43:12.766Z,4.03
2023-05-08T16:45:42.481Z,5.33
2023-05-08T16:48:11.929Z,3.93
2023-05-08T16:50:41.283Z,3.53
2023-05-08T16:53:10.607Z,3.70
2023-05-08T16:55:39.868Z,3.50
2023-05-08T16:58:09.361Z,3.27
2023-05-08T17:00:40.275Z,4.27
2023-05-08T17:03:09.807Z,4.50
2023-05-08T17:05:39.478Z,3.33
2023-05-08T17:08:08.998Z,3.93
2023-05-08T17:10:41.638Z,5.60
2023-05-08T17:13:11.683Z,4.70
2023-05-08T17:15:42.896Z,6.60
2023-05-08T17:18:12.802Z,5.50
2023-05-08T17:20:42.984Z,4.53
2023-05-08T17:23:12.842Z,3.97
2023-05-08T17:25:42.730Z,5.07
2023-05-08T17:28:12.523Z,4.77
2023-05-08T17:30:44.492Z,3.57
2023-05-08T17:33:15.163Z,4.47
2023-05-08T17:35:45.153Z,4.63
2023-05-08T17:38:14.879Z,3.10
2023-05-08T17:40:44.693Z,6.23
2023-05-08T17:43:14.611Z,3.77
2023-05-08T17:45:46.084Z,4.93
2023-05-08T17:48:16.175Z,7.10
2023-05-08T17:50:47.276Z,3.73
2023-05-08T17:53:17.064Z,5.10
2023-05-08T17:55:46.887Z,4.50
2023-05-08T17:58:16.766Z,5.57
2023-05-08T18:00:48.079Z,4.20
2023-05-08T18:03:18.110Z,5.00
2023-05-08T18:05:48.918Z,4.87
2023-05-08T18:08:19.008Z,7.27
2023-05-08T18:10:49.037Z,5.53
2023-05-08T18:13:18.934Z,3.90
2023-05-08T18:15:50.637Z,4.27
2023-05-08T18:18:21.331Z,6.40
2023-05-08T18:20:51.095Z,6.63
2023-05-08T18:23:22.542Z,9.33
2023-05-08T18:25:52.726Z,13.03
2023-05-08T18:28:22.935Z,5.20
2023-05-08T18:30:54.666Z,4.50
2023-05-08T18:33:24.573Z,6.07
2023-05-08T18:35:54.702Z,7.23
2023-05-08T18:38:24.684Z,7.00
2023-05-08T18:40:54.776Z,6.17
2023-05-08T18:43:25.417Z,7.00
2023-05-08T18:45:56.795Z,5.70
2023-05-08T18:48:28.173Z,8.43
2023-05-08T18:50:59.284Z,10.70
2023-05-08T18:53:31.504Z,9.57
2023-05-08T18:56:04.816Z,7.13
2023-05-08T18:58:35.665Z,5.90
2023-05-08T19:01:07.886Z,11.50
2023-05-08T19:03:38.964Z,9.37
2023-05-08T19:06:09.405Z,6.80
2023-05-08T19:08:39.552Z,9.60
2023-05-08T19:11:10.854Z,7.87
2023-05-08T19:13:41.244Z,11.43
2023-05-08T19:16:12.982Z,9.73
2023-05-08T19:18:43.020Z,10.17
2023-05-08T19:21:12.929Z,9.80
2023-05-08T19:23:43.129Z,5.03
2023-05-08T19:26:14.197Z,5.77
2023-05-08T19:28:44.112Z,6.77
2023-05-08T19:31:15.915Z,11.93
2023-05-08T19:33:45.918Z,24.57
2023-05-08T19:36:16.132Z,17.63
2023-05-08T19:38:46.723Z,7.77
2023-05-08T19:41:18.210Z,6.33
2023-05-08T19:43:48.133Z,4.40
2023-05-08T19:46:20.785Z,8.07
2023-05-08T19:48:50.636Z,6.00
2023-05-08T19:51:20.966Z,3.70
2023-05-08T19:53:51.103Z,4.30
2023-05-08T19:56:21.505Z,5.13
2023-05-08T19:58:51.268Z,5.60
2023-05-08T20:01:22.793Z,5.97
2023-05-08T20:03:52.719Z,4.60
2023-05-08T20:06:22.539Z,4.90
2023-05-08T20:08:52.206Z,5.60
2023-05-08T20:11:22.358Z,6.67
2023-05-08T20:13:52.096Z,7.20
2023-05-08T20:16:23.849Z,9.90
2023-05-08T20:18:54.280Z,9.90
2023-05-08T20:21:24.448Z,10.57
2023-05-08T20:23:54.044Z,7.37
2023-05-08T20:26:24.216Z,5.07
2023-05-08T20:28:53.756Z,5.60
2023-05-08T20:31:25.975Z,7.30
2023-05-08T20:33:55.462Z,12.97
2023-05-08T20:36:25.014Z,6.37
2023-05-08T20:38:54.440Z,8.20
2023-05-08T20:41:24.203Z,9.50
2023-05-08T20:43:53.466Z,7.90
2023-05-08T20:46:24.369Z,7.03
2023-05-08T20:48:53.657Z,8.63
2023-05-08T20:51:22.925Z,10.87
2023-05-08T20:53:52.428Z,11.30
2023-05-08T20:56:22.134Z,10.57
2023-05-08T20:58:51.417Z,14.60
2023-05-08T21:01:21.246Z,26.23
2023-05-08T21:03:52.036Z,19.37
2023-05-08T21:06:21.556Z,10.80
2023-05-08T21:08:51.170Z,18.80
2023-05-08T21:11:21.425Z,17.27
2023-05-08T21:13:50.792Z,14.77
2023-05-08T21:16:20.384Z,15.77
2023-05-08T21:18:49.707Z,18.07
2023-05-08T21:21:21.194Z,21.83
2023-05-08T21:23:50.630Z,18.37
2023-05-08T21:26:21.274Z,24.27
2023-05-08T21:28:52.584Z,20.63
2023-05-08T21:31:22.638Z,31.60
2023-05-08T21:33:52.291Z,17.93
2023-05-08T21:36:23.093Z,24.20
2023-05-08T21:38:52.725Z,25.83
2023-05-08T21:41:21.952Z,40.10
2023-05-08T21:43:51.276Z,35.53
2023-05-08T21:46:20.733Z,33.83
2023-05-08T21:48:49.962Z,27.77
2023-05-08T21:51:19.169Z,31.27
2023-05-08T21:53:49.869Z,30.27
2023-05-08T21:56:19.104Z,22.77
2023-05-08T21:58:49.341Z,25.00
2023-05-08T22:01:19.206Z,18.97
2023-05-08T22:03:48.927Z,22.90
2023-05-08T22:06:18.371Z,19.13
2023-05-08T22:08:49.255Z,19.27
2023-05-08T22:11:18.535Z,19.53
2023-05-08T22:13:47.887Z,20.63
2023-05-08T22:16:17.386Z,23.57
2023-05-08T22:18:46.774Z,19.23
2023-05-08T22:21:16.082Z,24.47
2023-05-08T22:23:45.664Z,24.07
2023-05-08T22:26:16.511Z,28.00
2023-05-08T22:28:45.683Z,26.40
2023-05-08T22:31:14.938Z,38.43
2023-05-08T22:33:44.214Z,43.50
2023-05-08T22:36:13.716Z,45.77
2023-05-08T22:38:43.073Z,56.17
2023-05-08T22:41:12.512Z,94.30
2023-05-08T22:43:43.463Z,82.30
2023-05-08T22:46:13.422Z,106.30
2023-05-08T22:48:42.925Z,90.77
2023-05-08T22:51:12.163Z,88.07
2023-05-08T22:53:41.395Z,84.30
2023-05-08T22:56:10.773Z,68.00
2023-05-08T22:58:39.959Z,49.87
2023-05-08T23:01:11.098Z,49.07
2023-05-08T23:03:40.440Z,41.80
2023-05-08T23:06:10.169Z,37.30
2023-05-08T23:08:39.410Z,40.30
2023-05-08T23:11:08.922Z,35.27
2023-05-08T23:13:38.399Z,30.30
2023-05-08T23:16:09.426Z,30.33
2023-05-08T23:18:39.093Z,26.80
2023-05-08T23:21:08.892Z,27.03
2023-05-08T23:23:38.373Z,21.07
2023-05-08T23:26:07.883Z,20.87
2023-05-08T23:28:37.819Z,23.17
2023-05-08T23:31:07.249Z,37.20
2023-05-08T23:33:38.028Z,39.20
2023-05-08T23:36:08.267Z,49.93
2023-05-08T23:38:37.559Z,69.70
2023-05-08T23:41:06.758Z,60.90
2023-05-08T23:43:36.117Z,58.57
2023-05-08T23:46:05.240Z,37.40
2023-05-08T23:48:34.773Z,30.50
2023-05-08T23:51:06.999Z,37.83
2023-05-08T23:53:36.225Z,38.37
2023-05-08T23:56:05.728Z,40.20
2023-05-08T23:58:35.090Z,37.97
